CheckWX is a tool to help pilots better visualize weather data.  It is not intended as a substitute for an official pre-flight weather briefing.

19:37:02 UTC

KTOI TAF
Troy Municipal at N Kenneth Campbell Field Airport
Troy, Alabama, USA
KTOI 121917Z 1219/1318 35017G27KT P6SM SCT025 FM130000 36012G20KT P6SM SKC FM130600 01007KT P6SM SKC

Nov-12@
19:00 UTC

Nov-12 @ 19:00 UTC

Nov-13@
00:00 UTC

Nov-13 @ 00:00 UTC

KTOI 121917Z 1219/1318 35017G27KT P6SM SCT025
Wind
  • 350° at 17 KTS
  • {Gusting to 27 KTS
Cloud Levels
  • Scattered at 2,500' AGL

Nov-13@
00:00 UTC

Nov-13 @ 00:00 UTC

Nov-13@
06:00 UTC

Nov-13 @ 06:00 UTC

FM130000 36012G20KT P6SM SKC

From

From Standard forecast or significant change

Wind
  • 360° at 12 KTS
  • {Gusting to 20 KTS
Cloud Levels
  • Clear skies

Nov-13@
06:00 UTC

Nov-13 @ 06:00 UTC

Nov-13@
18:00 UTC

Nov-13 @ 18:00 UTC

FM130600 01007KT P6SM SKC

From

From Standard forecast or significant change

Wind
  • 010° at 7 KTS
Cloud Levels
  • Clear skies